Aretxabaleta, Spain
Current Conditions -  °F | °C
As of 6:00 PM on Saturday 20 Dec 2014 (Local Time) from LEVT Reporting Station
Broken Clouds Broken Clouds  
Wind Chill: 52°   Ceiling: 2200
Heat Index: 52°   Visibility: 6mi
Dew Point: 50°   Wind: 2mph
Humidity: 94%   Direction: 280°W
Pressure: 30.53"   Gusts: NA
Location:  43.03°N, 2.5°W
Report Text: LEVT 201700Z 28002KT 9999 SCT010 BKN022 11/10 Q1034
Loading
Personal Weather Stations






























Interactive Weather Map New forecast layout! Learn more

10-Day Weather Forecast

Advertisements
Track Severe Weather on mobile